TERMINUS DAM (TRM)

Elevation: 752' · KAWEAH R basin · Operator: US Army Corps of Engineers

Provisional data, subject to change.
Query executed Thursday at 16:14:57   clock

Select a sensor type for a plot of data.
Note: Reservoir Flows are daily averages.

Earlier

Date RES ELE    STORAGE    RES CHG    TOC STO    ABV TOC    OUTFLOW    INFLOW    FNF    PPT INC    TEMP MN    TEMP MX    WINDLEN    EVP PAN   
 FEET   AF   AF   AF   AF   CFS   CFS   CFS   INCHES   DEG F   DEG F   MILES   INCHES  
03/25/2014 609.10 26299 259 33600 -7301 24 160 158 0.11 56 81 -- 0.24
03/26/2014 609.55 26644 345 34200 3144 26 201 199 0.12 52 63 -- 0.08
03/27/2014 609.99 26985 341 34900 -7915 28 202 202 0.00 49 64 -- 0.10
03/28/2014 610.39 27297 312 35100 1997 25 187 187 0.00 48 73 -- 0.18
03/29/2014 610.79 27612 315 35900 1412 24 187 187 0.00 53 78 -- 0.17
03/30/2014 611.39 28089 477 35800 -7711 22 267 267 0.01 48 64 -- 0.17
03/31/2014 611.97 28555 466 35900 -7345 20 257 257 0.30 46 67 -- 0.10
04/01/2014 612.56 29034 479 36300 -7266 19 264 264 0.26 43 62 -- 0.13
04/02/2014 613.17 29536 502 36300 -6764 21 277 277 0.00 45 65 -- 0.15
04/03/2014 613.68 29959 423 37100 -13341 20 237 237 0.00 48 68 -- 0.18
04/04/2014 614.17 30370 411 37900 -17930 20 232 232 0.00 50 67 -- 0.19
04/05/2014 614.66 30784 414 38700 -22616 20 232 232 0.00 43 68 -- 0.13
04/06/2014 615.09 31151 367 39200 -8049 20 211 211 0.00 50 76 -- 0.21
04/07/2014 615.71 31685 534 40100 -8415 21 296 296 0.00 54 85 -- 0.23
04/08/2014 616.63 32488 803 40900 -8412 20 432 432 0.00 59 91 -- 0.26
04/09/2014 617.64 33385 897 41800 -8415 24 483 483 0.00 60 90 -- 0.27
04/10/2014 618.52 34179 794 41900 -7721 31 439 439 0.00 60 89 -- 0.27
04/11/2014 619.48 35058 879 42100 -7042 32 482 482 0.00 64 89 -- 0.28
04/12/2014 620.48 35990 932 44200 -8210 32 508 508 -- 56 80 -- 0.25
04/13/2014 621.42 36880 890 45100 -8220 29 484 484 -- 53 80 -- 0.22
04/14/2014 622.41 37831 951 45900 -8069 28 514 514 0.00 59 87 -- 0.25
04/15/2014 623.44 38838 1007 46700 -7862 29 545 545 0.00 62 87 -- 0.28
04/16/2014 624.43 39820 982 47500 -7680 37 541 541 0.00 58 85 -- 0.28
04/17/2014 625.47 40868 1048 48000 -7132 38 574 574 0.00 61 87 -- 0.24
04/18/2014 626.53 41953 1085 119500 -7447 39 593 593 0.00 60 82 -- 0.24
04/19/2014 627.42 42878 925 124600 -7222 39 512 512 0.00 61 85 -- 0.22
04/20/2014 628.32 43825 947 129700 -85875 37 522 522 0.00 53 83 -- 0.25
04/21/2014 629.29 44859 1034 134800 -89941 36 564 564 0.00 60 85 -- 0.24
04/22/2014 630.26 45908 1049 139900 -93992 30 568 568 0.00 56 73 -- 0.28
04/23/2014 630.94 46651 743 145000 -98349 33 415 415 0.00 48 73 -- 0.24
04/24/2014 -- -- -- -- -- -- -- -- -- -- -- -- --

Later | Latest

Warning! This data is preliminary and subject to revision.

Download Data Now Download Data Now | Show TRM Map | Plot TRM Data | 1 Month TRM Data | Real-Time TRM Data | TRM Info